createdAt,value
2019-02-18T00:00:00.365Z,68.93
2019-02-18T00:01:00.290Z,68.74
2019-02-18T00:02:00.230Z,68.74
2019-02-18T00:03:00.176Z,68.74
2019-02-18T00:04:00.112Z,68.84
2019-02-18T00:05:00.058Z,68.84
2019-02-18T00:05:59.996Z,68.65
2019-02-18T00:06:59.931Z,68.84
2019-02-18T00:07:59.872Z,68.65
2019-02-18T00:08:59.807Z,68.84
2019-02-18T00:09:59.749Z,68.84
2019-02-18T00:10:59.687Z,68.93
2019-02-18T00:11:59.639Z,68.65
2019-02-18T00:12:59.569Z,68.46
2019-02-18T00:13:59.507Z,68.55
2019-02-18T00:14:59.474Z,68.84
2019-02-18T00:15:59.387Z,68.93
2019-02-18T00:16:59.402Z,68.84
2019-02-18T00:17:59.267Z,68.84
2019-02-18T00:18:59.208Z,68.84
2019-02-18T00:19:59.147Z,68.84
2019-02-18T00:20:59.086Z,68.93
2019-02-18T00:21:59.026Z,68.55
2019-02-18T00:22:58.966Z,68.27
2019-02-18T00:23:58.910Z,68.74
2019-02-18T00:24:58.846Z,68.93
2019-02-18T00:25:58.785Z,68.46
2019-02-18T00:26:58.726Z,68.46
2019-02-18T00:27:58.666Z,68.84
2019-02-18T00:28:58.608Z,68.46
2019-02-18T00:29:58.545Z,68.46
2019-02-18T00:30:58.490Z,68.46
2019-02-18T00:31:58.424Z,68.84
2019-02-18T00:32:58.364Z,68.65
2019-02-18T00:33:58.304Z,68.46
2019-02-18T00:34:58.258Z,68.74
2019-02-18T00:35:58.184Z,68.46
2019-02-18T00:36:58.122Z,68.65
2019-02-18T00:37:58.063Z,68.46
2019-02-18T00:38:58.003Z,68.55
2019-02-18T00:39:57.942Z,68.52
2019-02-18T00:40:57.895Z,68.55
2019-02-18T00:41:57.825Z,68.55
2019-02-18T00:42:57.763Z,68.55
2019-02-18T00:43:57.708Z,68.55
2019-02-18T00:44:57.643Z,68.46
2019-02-18T00:45:57.581Z,68.36
2019-02-18T00:46:57.521Z,68.52
2019-02-18T00:47:57.460Z,68.55
2019-02-18T00:48:57.399Z,68.46
2019-02-18T00:49:57.338Z,68.52
2019-02-18T00:50:57.279Z,68.27
2019-02-18T00:51:57.227Z,68.42
2019-02-18T00:52:57.159Z,68.52
2019-02-18T00:53:57.099Z,68.74
2019-02-18T00:54:57.039Z,68.42
2019-02-18T00:55:56.983Z,68.61
2019-02-18T00:56:56.917Z,68.74
2019-02-18T00:57:56.856Z,68.42
2019-02-18T00:58:56.799Z,68.52
2019-02-18T00:59:56.739Z,68.71
2019-02-18T01:00:56.675Z,68.33
2019-02-18T01:01:56.627Z,68.52
2019-02-18T01:02:56.556Z,68.61
2019-02-18T01:03:56.497Z,68.71
2019-02-18T01:04:56.435Z,68.33
2019-02-18T01:05:56.375Z,68.61
2019-02-18T01:06:56.317Z,68.61
2019-02-18T01:07:56.259Z,68.52
2019-02-18T01:08:56.193Z,68.33
2019-02-18T01:09:56.133Z,68.52
2019-02-18T01:10:56.074Z,67.94
2019-02-18T01:11:56.020Z,68.42
2019-02-18T01:12:55.954Z,68.13
2019-02-18T01:13:55.894Z,68.04
2019-02-18T01:14:55.835Z,68.23
2019-02-18T01:15:55.775Z,68.33
2019-02-18T01:16:55.711Z,68.33
2019-02-18T01:17:55.651Z,68.42
2019-02-18T01:18:55.594Z,68.33
2019-02-18T01:19:55.530Z,68.13
2019-02-18T01:20:55.471Z,67.76
2019-02-18T01:21:55.409Z,68.13
2019-02-18T01:22:55.351Z,68.33
2019-02-18T01:23:55.291Z,68.23
2019-02-18T01:24:55.227Z,68.23
2019-02-18T01:25:55.169Z,67.57
2019-02-18T01:26:55.110Z,67.76
2019-02-18T01:27:55.050Z,67.66
2019-02-18T01:28:54.993Z,67.57
2019-02-18T01:29:54.926Z,67.66
2019-02-18T01:30:54.868Z,67.57
2019-02-18T01:31:54.805Z,67.57
2019-02-18T01:32:54.745Z,67.66
2019-02-18T01:33:54.683Z,67.66
2019-02-18T01:34:54.623Z,67.47
2019-02-18T01:35:54.567Z,67.57
2019-02-18T01:36:54.502Z,67.66
2019-02-18T01:37:54.443Z,67.76
2019-02-18T01:38:54.382Z,67.38
2019-02-18T01:39:54.321Z,67.47
2019-02-18T01:40:54.269Z,67.38
2019-02-18T01:41:54.201Z,67.47
2019-02-18T01:42:54.140Z,67.38
2019-02-18T01:43:54.080Z,67.76
2019-02-18T01:44:54.021Z,67.76
2019-02-18T01:45:53.959Z,67.76
2019-02-18T01:46:53.898Z,67.76
2019-02-18T01:47:53.838Z,67.38
2019-02-18T01:48:53.778Z,67.38
2019-02-18T01:49:53.717Z,67.38
2019-02-18T01:50:53.657Z,67.76
2019-02-18T01:51:53.601Z,67.66
2019-02-18T01:52:53.535Z,67.66
2019-02-18T01:53:53.474Z,67.57
2019-02-18T01:54:53.415Z,67.76
2019-02-18T01:55:53.354Z,67.76
2019-02-18T01:56:53.292Z,67.85
2019-02-18T01:57:53.234Z,67.38
2019-02-18T01:58:53.172Z,67.76
2019-02-18T01:59:53.111Z,67.76
2019-02-18T02:00:53.051Z,67.76
2019-02-18T02:01:52.990Z,67.76
2019-02-18T02:02:52.931Z,67.76
2019-02-18T02:03:52.872Z,67.66
2019-02-18T02:04:52.808Z,67.76
2019-02-18T02:05:52.748Z,67.66
2019-02-18T02:06:52.689Z,67.94
2019-02-18T02:07:56.336Z,67.85
2019-02-18T02:08:52.569Z,67.28
2019-02-18T02:09:52.506Z,67.57
2019-02-18T02:10:52.452Z,67.28
2019-02-18T02:11:52.393Z,67.47
2019-02-18T02:12:52.325Z,67.57
2019-02-18T02:13:52.267Z,67.47
2019-02-18T02:14:52.206Z,67.38
2019-02-18T02:15:52.144Z,67.38
2019-02-18T02:16:52.083Z,67.28
2019-02-18T02:17:52.025Z,67.38
2019-02-18T02:18:51.964Z,67.09
2019-02-18T02:19:51.901Z,67.38
2019-02-18T02:20:51.846Z,67.38
2019-02-18T02:21:51.780Z,67.38
2019-02-18T02:22:51.718Z,67.47
2019-02-18T02:23:51.660Z,67.47
2019-02-18T02:24:51.599Z,67.47
2019-02-18T02:25:51.538Z,67.38
2019-02-18T02:26:51.477Z,67.38
2019-02-18T02:27:51.419Z,67.09
2019-02-18T02:28:51.357Z,67.38
2019-02-18T02:29:51.295Z,67.47
2019-02-18T02:30:51.235Z,67.38
2019-02-18T02:31:51.174Z,67.47
2019-02-18T02:32:51.176Z,67.28
2019-02-18T02:33:51.054Z,67.38
2019-02-18T02:34:50.991Z,67.28
2019-02-18T02:35:50.932Z,67.09
2019-02-18T02:36:50.870Z,67.28
2019-02-18T02:37:50.812Z,67.09
2019-02-18T02:38:50.750Z,67.47
2019-02-18T02:39:50.689Z,67.47
2019-02-18T02:40:50.628Z,67.28
2019-02-18T02:41:50.570Z,67.28
2019-02-18T02:42:50.506Z,67.57
2019-02-18T02:43:50.447Z,67.47
2019-02-18T02:44:50.384Z,67.28
2019-02-18T02:45:50.324Z,67.47
2019-02-18T02:46:50.265Z,67.66
2019-02-18T02:47:50.204Z,67.19
2019-02-18T02:48:50.141Z,67.28
2019-02-18T02:49:50.083Z,67.47
2019-02-18T02:50:50.023Z,67.28
2019-02-18T02:51:49.967Z,67.28
2019-02-18T02:52:49.899Z,67.19
2019-02-18T02:53:49.843Z,67.19
2019-02-18T02:54:49.778Z,67.19
2019-02-18T02:55:49.717Z,67.38
2019-02-18T02:56:49.660Z,67.00
2019-02-18T02:57:49.595Z,66.90
2019-02-18T02:58:49.536Z,67.19
2019-02-18T02:59:49.477Z,66.90
2019-02-18T03:00:49.414Z,67.19
2019-02-18T03:01:49.356Z,66.71
2019-02-18T03:02:49.292Z,66.80
2019-02-18T03:03:49.232Z,66.87
2019-02-18T03:04:49.177Z,66.61
2019-02-18T03:05:49.112Z,66.80
2019-02-18T03:06:49.051Z,67.09
2019-02-18T03:07:48.994Z,66.90
2019-02-18T03:08:48.927Z,66.80
2019-02-18T03:09:48.868Z,66.77
2019-02-18T03:10:48.807Z,66.61
2019-02-18T03:11:48.745Z,66.61
2019-02-18T03:12:48.684Z,66.80
2019-02-18T03:13:48.624Z,66.90
2019-02-18T03:14:48.563Z,66.80
2019-02-18T03:15:48.614Z,66.87
2019-02-18T03:16:48.447Z,66.77
2019-02-18T03:17:48.381Z,66.67
2019-02-18T03:18:48.325Z,66.71
2019-02-18T03:19:48.267Z,66.67
2019-02-18T03:20:48.199Z,66.87
2019-02-18T03:21:48.138Z,66.87
2019-02-18T03:22:48.077Z,66.87
2019-02-18T03:23:48.019Z,66.58
2019-02-18T03:24:47.957Z,66.87
2019-02-18T03:25:47.894Z,66.87
2019-02-18T03:26:47.839Z,66.87
2019-02-18T03:27:47.775Z,66.96
2019-02-18T03:28:47.711Z,66.96
2019-02-18T03:29:47.652Z,66.96
2019-02-18T03:30:47.599Z,67.06
2019-02-18T03:31:47.531Z,66.67
2019-02-18T03:32:47.470Z,66.67
2019-02-18T03:33:47.409Z,66.96
2019-02-18T03:34:47.354Z,66.77
2019-02-18T03:35:47.286Z,66.77
2019-02-18T03:36:47.225Z,67.25
2019-02-18T03:37:47.170Z,67.06
2019-02-18T03:38:47.108Z,67.15
2019-02-18T03:39:47.044Z,67.15
2019-02-18T03:40:46.981Z,66.77
2019-02-18T03:41:46.921Z,66.77
2019-02-18T03:42:46.860Z,66.67
2019-02-18T03:43:46.798Z,66.77
2019-02-18T03:44:46.739Z,67.25
2019-02-18T03:45:46.677Z,67.25
2019-02-18T03:46:46.617Z,67.06
2019-02-18T03:47:46.555Z,67.15
2019-02-18T03:48:46.494Z,66.58
2019-02-18T03:49:46.438Z,66.30
2019-02-18T03:50:46.374Z,66.58
2019-02-18T03:51:46.313Z,66.39
2019-02-18T03:52:46.250Z,66.39
2019-02-18T03:53:46.190Z,66.58
2019-02-18T03:54:46.128Z,66.49
2019-02-18T03:55:46.070Z,66.58
2019-02-18T03:56:46.008Z,66.67
2019-02-18T03:57:45.953Z,66.49
2019-02-18T03:58:45.887Z,66.58
2019-02-18T03:59:45.831Z,66.49
2019-02-18T04:00:45.763Z,66.58
2019-02-18T04:01:45.703Z,66.49
2019-02-18T04:02:45.646Z,66.49
2019-02-18T04:03:45.582Z,66.01
2019-02-18T04:04:45.520Z,66.30
2019-02-18T04:05:45.461Z,66.49
2019-02-18T04:06:45.399Z,66.39
2019-02-18T04:07:45.342Z,66.30
2019-02-18T04:08:45.278Z,66.39
2019-02-18T04:09:45.219Z,66.39
2019-02-18T04:10:45.157Z,65.92
2019-02-18T04:11:45.093Z,66.01
2019-02-18T04:12:45.036Z,65.82
2019-02-18T04:13:44.975Z,66.39
2019-02-18T04:14:44.911Z,66.11
2019-02-18T04:15:44.850Z,66.11
2019-02-18T04:16:44.794Z,66.49
2019-02-18T04:17:44.726Z,66.01
2019-02-18T04:18:44.666Z,66.49
2019-02-18T04:19:44.605Z,66.39
2019-02-18T04:20:44.544Z,66.11
2019-02-18T04:21:44.484Z,66.01
2019-02-18T04:22:44.426Z,66.01
2019-02-18T04:23:44.363Z,66.30
2019-02-18T04:24:44.320Z,66.30
2019-02-18T04:25:44.238Z,65.92
2019-02-18T04:26:44.178Z,66.39
2019-02-18T04:27:44.193Z,66.30
2019-02-18T04:28:44.057Z,66.30
2019-02-18T04:29:44.006Z,66.11
2019-02-18T04:30:43.937Z,66.30
2019-02-18T04:31:43.886Z,66.30
2019-02-18T04:32:43.815Z,66.20
2019-02-18T04:33:43.758Z,66.20
2019-02-18T04:34:43.690Z,66.11
2019-02-18T04:35:43.630Z,66.30
2019-02-18T04:36:43.567Z,65.92
2019-02-18T04:37:43.520Z,66.01
2019-02-18T04:38:53.631Z,66.11
2019-02-18T04:39:43.384Z,65.82
2019-02-18T04:40:43.330Z,66.11
2019-02-18T04:41:43.264Z,66.01
2019-02-18T04:42:43.204Z,65.82
2019-02-18T04:43:43.144Z,66.01
2019-02-18T04:44:43.080Z,66.01
2019-02-18T04:45:43.032Z,66.20
2019-02-18T04:46:42.957Z,66.20
2019-02-18T04:47:42.896Z,66.20
2019-02-18T04:48:42.835Z,65.73
2019-02-18T04:49:42.773Z,65.82
2019-02-18T04:50:42.720Z,66.20
2019-02-18T04:51:42.652Z,65.82
2019-02-18T04:52:42.591Z,65.82
2019-02-18T04:53:42.528Z,65.63
2019-02-18T04:54:42.472Z,65.63
2019-02-18T04:55:42.407Z,65.73
2019-02-18T04:56:42.345Z,66.01
2019-02-18T04:57:42.291Z,66.11
2019-02-18T04:58:42.223Z,66.01
2019-02-18T04:59:42.163Z,66.30
2019-02-18T05:00:42.104Z,66.20
2019-02-18T05:01:42.040Z,66.20
2019-02-18T05:02:41.978Z,66.11
2019-02-18T05:03:41.917Z,66.11
2019-02-18T05:04:41.856Z,66.11
2019-02-18T05:05:41.794Z,66.11
2019-02-18T05:06:41.734Z,66.20
2019-02-18T05:07:41.677Z,66.20
2019-02-18T05:08:41.610Z,66.20
2019-02-18T05:09:41.552Z,66.11
2019-02-18T05:10:41.495Z,66.08
2019-02-18T05:11:41.432Z,66.01
2019-02-18T05:12:41.390Z,66.11
2019-02-18T05:13:41.306Z,65.92
2019-02-18T05:14:41.247Z,66.11
2019-02-18T05:15:41.184Z,66.11
2019-02-18T05:16:41.122Z,66.30
2019-02-18T05:17:41.061Z,66.01
2019-02-18T05:18:41.000Z,66.20
2019-02-18T05:19:40.941Z,66.20
2019-02-18T05:20:40.877Z,66.11
2019-02-18T05:21:40.915Z,66.01
2019-02-18T05:22:40.756Z,66.20
2019-02-18T05:23:40.695Z,66.30
2019-02-18T05:24:40.632Z,66.01
2019-02-18T05:25:40.571Z,66.11
2019-02-18T05:26:40.510Z,65.82
2019-02-18T05:27:40.451Z,66.01
2019-02-18T05:28:40.436Z,66.20
2019-02-18T05:29:40.325Z,66.30
2019-02-18T05:30:40.265Z,66.20
2019-02-18T05:31:40.213Z,66.11
2019-02-18T05:32:40.142Z,66.11
2019-02-18T05:33:40.086Z,66.11
2019-02-18T05:34:40.043Z,65.98
2019-02-18T05:35:39.959Z,66.30
2019-02-18T05:36:39.899Z,65.92
2019-02-18T05:37:39.846Z,66.01
2019-02-18T05:38:39.776Z,66.01
2019-02-18T05:39:39.717Z,66.08
2019-02-18T05:40:39.658Z,66.17
2019-02-18T05:41:39.591Z,65.92
2019-02-18T05:42:39.530Z,66.08
2019-02-18T05:43:39.471Z,65.88
2019-02-18T05:44:39.409Z,65.88
2019-02-18T05:45:39.348Z,65.88
2019-02-18T05:46:39.287Z,66.36
2019-02-18T05:47:39.227Z,65.88
2019-02-18T05:48:39.182Z,65.88
2019-02-18T05:49:39.101Z,65.60
2019-02-18T05:50:39.040Z,65.41
2019-02-18T05:51:38.984Z,65.79
2019-02-18T05:52:38.919Z,65.69
2019-02-18T05:53:38.857Z,65.88
2019-02-18T05:54:38.795Z,66.17
2019-02-18T05:55:38.737Z,65.98
2019-02-18T05:56:38.671Z,66.17
2019-02-18T05:57:38.611Z,65.69
2019-02-18T05:58:38.551Z,65.50
2019-02-18T05:59:38.490Z,65.41
2019-02-18T06:00:38.426Z,65.69
2019-02-18T06:01:38.366Z,65.88
2019-02-18T06:02:38.304Z,65.88
2019-02-18T06:03:38.244Z,66.27
2019-02-18T06:04:38.198Z,66.08
2019-02-18T06:05:38.121Z,66.27
2019-02-18T06:06:38.060Z,66.27
2019-02-18T06:07:38.000Z,65.69
2019-02-18T06:08:37.936Z,65.69
2019-02-18T06:09:37.875Z,66.17
2019-02-18T06:10:37.815Z,65.88
2019-02-18T06:11:37.824Z,65.88
2019-02-18T06:12:37.689Z,65.88
2019-02-18T06:13:37.629Z,65.69
2019-02-18T06:14:37.577Z,65.69
2019-02-18T06:15:37.508Z,65.60
2019-02-18T06:16:37.450Z,65.60
2019-02-18T06:17:37.387Z,65.79
2019-02-18T06:18:37.323Z,65.88
2019-02-18T06:19:37.261Z,65.79
2019-02-18T06:20:37.203Z,65.88
2019-02-18T06:21:37.138Z,65.60
2019-02-18T06:22:38.688Z,65.69
2019-02-18T06:23:37.017Z,65.79
2019-02-18T06:24:36.953Z,65.79
2019-02-18T06:25:36.895Z,65.69
2019-02-18T06:26:36.833Z,65.60
2019-02-18T06:27:36.771Z,65.50
2019-02-18T06:28:36.708Z,65.88
2019-02-18T06:29:36.646Z,65.79
2019-02-18T06:30:36.591Z,65.79
2019-02-18T06:31:36.523Z,65.60
2019-02-18T06:32:36.462Z,65.60
2019-02-18T06:33:36.405Z,65.98
2019-02-18T06:34:36.340Z,65.88
2019-02-18T06:35:36.337Z,65.88
2019-02-18T06:36:36.218Z,65.50
2019-02-18T06:37:36.156Z,65.88
2019-02-18T06:38:36.104Z,65.79
2019-02-18T06:39:41.356Z,65.50
2019-02-18T06:40:35.971Z,65.98
2019-02-18T06:41:35.910Z,65.50
2019-02-18T06:42:35.900Z,65.79
2019-02-18T06:43:35.787Z,65.79
2019-02-18T06:44:35.726Z,65.79
2019-02-18T06:45:35.663Z,65.79
2019-02-18T06:46:35.609Z,65.60
2019-02-18T06:47:35.542Z,65.79
2019-02-18T06:48:35.480Z,65.79
2019-02-18T06:49:35.420Z,65.79
2019-02-18T06:50:35.356Z,65.79
2019-02-18T06:51:35.296Z,65.79
2019-02-18T06:52:35.238Z,65.50
2019-02-18T06:53:35.181Z,65.50
2019-02-18T06:54:35.112Z,65.79
2019-02-18T06:55:35.049Z,65.98
2019-02-18T06:56:34.988Z,65.79
2019-02-18T06:57:34.928Z,65.88
2019-02-18T06:58:34.869Z,65.50
2019-02-18T06:59:34.806Z,65.88
2019-02-18T07:00:34.744Z,65.50
2019-02-18T07:01:34.679Z,65.60
2019-02-18T07:02:34.620Z,65.50
2019-02-18T07:03:34.561Z,65.50
2019-02-18T07:04:34.495Z,65.88
2019-02-18T07:05:34.434Z,65.98
2019-02-18T07:06:34.379Z,65.79
2019-02-18T07:07:34.311Z,65.88
2019-02-18T07:08:34.253Z,65.60
2019-02-18T07:09:34.188Z,65.88
2019-02-18T07:10:34.128Z,65.79
2019-02-18T07:11:34.065Z,65.79
2019-02-18T07:12:34.005Z,65.50
2019-02-18T07:13:33.948Z,65.79
2019-02-18T07:14:33.880Z,65.41
2019-02-18T07:15:33.817Z,65.79
2019-02-18T07:16:33.757Z,65.79
2019-02-18T07:17:33.695Z,65.79
2019-02-18T07:18:33.634Z,65.79
2019-02-18T07:19:33.573Z,65.69
2019-02-18T07:20:33.518Z,65.88
2019-02-18T07:21:33.453Z,65.60
2019-02-18T07:22:33.389Z,65.69
2019-02-18T07:23:33.330Z,65.41
2019-02-18T07:24:33.264Z,65.79
2019-02-18T07:25:33.206Z,65.50
2019-02-18T07:26:33.148Z,65.88
2019-02-18T07:27:33.082Z,65.69
2019-02-18T07:28:33.021Z,65.60
2019-02-18T07:29:34.198Z,65.69
2019-02-18T07:30:32.895Z,65.88
2019-02-18T07:31:32.833Z,66.17
2019-02-18T07:32:32.774Z,66.08
2019-02-18T07:33:32.715Z,66.17
2019-02-18T07:34:32.650Z,66.27
2019-02-18T07:35:32.592Z,65.98
2019-02-18T07:36:34.891Z,66.08
2019-02-18T07:37:32.464Z,66.17
2019-02-18T07:38:32.403Z,65.88
2019-02-18T07:39:32.346Z,65.98
2019-02-18T07:40:32.278Z,65.69
2019-02-18T07:41:32.219Z,65.60
2019-02-18T07:42:32.158Z,65.79
2019-02-18T07:43:32.097Z,65.88
2019-02-18T07:44:32.032Z,66.27
2019-02-18T07:45:31.972Z,66.17
2019-02-18T07:46:31.912Z,66.27
2019-02-18T07:47:31.848Z,66.08
2019-02-18T07:48:31.787Z,65.98
2019-02-18T07:49:31.725Z,66.46
2019-02-18T07:50:31.665Z,65.98
2019-02-18T07:51:31.602Z,66.17
2019-02-18T07:52:31.540Z,66.27
2019-02-18T07:53:31.478Z,66.36
2019-02-18T07:54:31.421Z,65.88
2019-02-18T07:55:31.357Z,66.55
2019-02-18T07:56:31.294Z,66.36
2019-02-18T07:57:31.234Z,66.46
2019-02-18T07:58:31.172Z,66.64
2019-02-18T07:59:31.108Z,67.12
2019-02-18T08:00:31.050Z,67.12
2019-02-18T08:01:30.985Z,67.12
2019-02-18T08:02:30.926Z,66.64
2019-02-18T08:03:30.865Z,66.74
2019-02-18T08:04:30.801Z,66.64
2019-02-18T08:05:30.738Z,66.74
2019-02-18T08:06:30.677Z,66.83
2019-02-18T08:07:30.616Z,66.55
2019-02-18T08:08:30.558Z,66.74
2019-02-18T08:09:30.496Z,66.55
2019-02-18T08:10:30.479Z,66.74
2019-02-18T08:11:30.369Z,66.93
2019-02-18T08:12:30.306Z,67.50
2019-02-18T08:13:30.246Z,67.31
2019-02-18T08:14:30.189Z,67.40
2019-02-18T08:15:30.127Z,67.40
2019-02-18T08:16:30.064Z,67.02
2019-02-18T08:17:30.006Z,67.31
2019-02-18T08:18:29.946Z,67.50
2019-02-18T08:19:29.882Z,67.59
2019-02-18T08:20:29.815Z,67.50
2019-02-18T08:21:29.761Z,67.31
2019-02-18T08:22:29.698Z,67.79
2019-02-18T08:23:29.634Z,67.69
2019-02-18T08:24:29.571Z,67.69
2019-02-18T08:25:29.511Z,67.69
2019-02-18T08:26:29.451Z,67.69
2019-02-18T08:27:29.399Z,67.59
2019-02-18T08:28:29.325Z,67.40
2019-02-18T08:29:29.265Z,67.59
2019-02-18T08:30:29.203Z,67.31
2019-02-18T08:31:29.141Z,67.69
2019-02-18T08:32:29.086Z,67.88
2019-02-18T08:33:29.019Z,68.07
2019-02-18T08:34:28.963Z,68.35
2019-02-18T08:35:28.899Z,68.07
2019-02-18T08:36:28.831Z,67.97
2019-02-18T08:37:30.339Z,68.16
2019-02-18T08:38:28.709Z,68.44
2019-02-18T08:39:28.647Z,68.44
2019-02-18T08:40:28.585Z,68.44
2019-02-18T08:41:28.527Z,68.35
2019-02-18T08:42:28.463Z,68.44
2019-02-18T08:43:28.407Z,68.44
2019-02-18T08:44:28.339Z,68.35
2019-02-18T08:45:28.272Z,68.44
2019-02-18T08:46:28.218Z,68.73
2019-02-18T08:47:28.149Z,68.64
2019-02-18T08:48:28.087Z,68.35
2019-02-18T08:49:28.029Z,68.35
2019-02-18T08:50:27.963Z,68.35
2019-02-18T08:51:27.902Z,68.92
2019-02-18T08:52:27.842Z,68.54
2019-02-18T08:53:27.780Z,68.73
2019-02-18T08:54:27.717Z,68.54
2019-02-18T08:55:27.657Z,68.64
2019-02-18T08:56:27.596Z,68.64
2019-02-18T08:57:27.533Z,68.73
2019-02-18T08:58:27.470Z,68.64
2019-02-18T08:59:27.409Z,68.64
2019-02-18T09:00:27.352Z,68.83
2019-02-18T09:01:27.286Z,68.73
2019-02-18T09:02:27.225Z,68.64
2019-02-18T09:03:27.164Z,68.64
2019-02-18T09:04:28.125Z,68.73
2019-02-18T09:05:27.039Z,68.73
2019-02-18T09:06:26.978Z,68.73
2019-02-18T09:07:26.934Z,68.64
2019-02-18T09:08:26.857Z,68.83
2019-02-18T09:09:26.793Z,68.73
2019-02-18T09:10:33.636Z,68.73
2019-02-18T09:11:26.670Z,68.73
2019-02-18T09:12:26.612Z,68.83
2019-02-18T09:13:26.546Z,68.83
2019-02-18T09:14:26.485Z,69.11
2019-02-18T09:15:26.424Z,69.11
2019-02-18T09:16:26.363Z,69.40
2019-02-18T09:17:26.299Z,68.83
2019-02-18T09:18:41.015Z,68.73
2019-02-18T09:19:26.177Z,68.64
2019-02-18T09:20:26.116Z,68.64
2019-02-18T09:21:26.053Z,68.73
2019-02-18T09:22:25.992Z,68.64
2019-02-18T09:23:25.933Z,68.83
2019-02-18T09:24:25.871Z,68.73
2019-02-18T09:25:25.810Z,68.73
2019-02-18T09:26:25.749Z,68.83
2019-02-18T09:27:25.687Z,68.73
2019-02-18T09:28:25.621Z,69.11
2019-02-18T09:29:25.566Z,68.73
2019-02-18T09:30:25.508Z,68.73
2019-02-18T09:31:25.444Z,68.83
2019-02-18T09:32:25.381Z,68.83
2019-02-18T09:33:25.314Z,69.02
2019-02-18T09:34:25.253Z,68.73
2019-02-18T09:35:25.191Z,69.02
2019-02-18T09:36:25.129Z,68.83
2019-02-18T09:37:25.069Z,68.64
2019-02-18T09:38:25.661Z,68.83
2019-02-18T09:39:31.118Z,68.83
2019-02-18T09:40:24.885Z,68.77
2019-02-18T09:41:24.825Z,68.67
2019-02-18T09:42:26.507Z,68.86
2019-02-18T09:43:24.699Z,68.77
2019-02-18T09:44:24.636Z,69.11
2019-02-18T09:45:24.577Z,69.05
2019-02-18T09:46:24.515Z,68.96
2019-02-18T09:47:24.454Z,68.86
2019-02-18T09:48:24.394Z,69.05
2019-02-18T09:49:24.331Z,69.15
2019-02-18T09:50:24.268Z,69.15
2019-02-18T09:51:24.209Z,68.96
2019-02-18T09:52:24.144Z,69.43
2019-02-18T09:53:24.082Z,68.96
2019-02-18T09:54:24.030Z,68.86
2019-02-18T09:55:23.961Z,69.05
2019-02-18T09:56:23.898Z,68.86
2019-02-18T09:57:23.845Z,69.43
2019-02-18T09:58:23.778Z,69.15
2019-02-18T09:59:23.714Z,69.15
2019-02-18T10:00:23.658Z,69.05
2019-02-18T10:01:23.593Z,69.05
2019-02-18T10:02:23.529Z,69.05
2019-02-18T10:03:31.703Z,68.86
2019-02-18T10:04:23.412Z,68.86
2019-02-18T10:05:23.344Z,69.15
2019-02-18T10:06:23.283Z,69.05
2019-02-18T10:07:23.222Z,69.05
2019-02-18T10:08:23.159Z,69.05
2019-02-18T10:09:23.099Z,69.05
2019-02-18T10:10:23.038Z,69.15
2019-02-18T10:11:22.976Z,69.05
2019-02-18T10:12:22.913Z,69.43
2019-02-18T10:13:22.852Z,69.15
2019-02-18T10:14:22.791Z,69.24
2019-02-18T10:15:22.729Z,69.05
2019-02-18T10:16:22.667Z,69.05
2019-02-18T10:17:22.606Z,69.43
2019-02-18T10:18:22.549Z,69.53
2019-02-18T10:19:22.484Z,69.71
2019-02-18T10:20:22.422Z,69.53
2019-02-18T10:21:22.363Z,69.53
2019-02-18T10:22:22.299Z,69.62
2019-02-18T10:23:22.238Z,69.34
2019-02-18T10:24:22.260Z,69.62
2019-02-18T10:25:22.115Z,69.62
2019-02-18T10:26:22.064Z,69.53
2019-02-18T10:27:21.993Z,69.62
2019-02-18T10:28:21.930Z,69.81
2019-02-18T10:29:21.868Z,69.62
2019-02-18T10:30:21.813Z,70.00
2019-02-18T10:31:21.748Z,69.71
2019-02-18T10:32:21.683Z,69.62
2019-02-18T10:33:21.630Z,69.91
2019-02-18T10:34:21.562Z,69.43
2019-02-18T10:35:21.500Z,69.53
2019-02-18T10:36:21.440Z,69.34
2019-02-18T10:37:21.376Z,69.91
2019-02-18T10:38:21.324Z,69.62
2019-02-18T10:39:21.256Z,69.91
2019-02-18T10:40:21.193Z,69.62
2019-02-18T10:41:21.131Z,69.53
2019-02-18T10:42:21.070Z,69.81
2019-02-18T10:43:30.155Z,69.43
2019-02-18T10:44:20.947Z,69.43
2019-02-18T10:45:20.888Z,69.71
2019-02-18T10:46:20.826Z,69.71
2019-02-18T10:47:20.762Z,69.91
2019-02-18T10:48:20.709Z,69.91
2019-02-18T10:49:21.580Z,69.62
2019-02-18T10:50:20.586Z,69.62
2019-02-18T10:51:20.523Z,69.53
2019-02-18T10:52:22.558Z,69.62
2019-02-18T10:53:20.394Z,69.62
2019-02-18T10:54:20.333Z,69.53
2019-02-18T10:55:20.271Z,69.62
2019-02-18T10:56:20.211Z,69.62
2019-02-18T10:57:20.148Z,69.62
2019-02-18T10:58:20.088Z,69.71
2019-02-18T10:59:20.027Z,69.62
2019-02-18T11:00:19.965Z,69.53
2019-02-18T11:01:19.903Z,69.62
2019-02-18T11:02:19.842Z,69.62
2019-02-18T11:03:19.801Z,69.53
2019-02-18T11:04:19.719Z,69.62
2019-02-18T11:05:19.657Z,69.71
2019-02-18T11:06:19.596Z,69.71
2019-02-18T11:07:19.536Z,69.62
2019-02-18T11:08:19.478Z,69.62
2019-02-18T11:09:19.418Z,69.05
2019-02-18T11:10:19.353Z,69.15
2019-02-18T11:11:19.292Z,69.05
2019-02-18T11:12:19.229Z,69.43
2019-02-18T11:13:19.169Z,69.53
2019-02-18T11:14:19.110Z,69.15
2019-02-18T11:15:19.045Z,69.09
2019-02-18T11:16:18.983Z,69.09
2019-02-18T11:17:18.922Z,69.09
2019-02-18T11:18:18.861Z,69.09
2019-02-18T11:19:18.800Z,69.09
2019-02-18T11:20:18.738Z,69.18
2019-02-18T11:21:18.678Z,69.09
2019-02-18T11:22:18.619Z,69.09
2019-02-18T11:23:18.556Z,69.09
2019-02-18T11:24:20.657Z,69.09
2019-02-18T11:25:18.432Z,69.27
2019-02-18T11:26:18.371Z,68.80
2019-02-18T11:27:18.309Z,69.09
2019-02-18T11:28:18.247Z,69.09
2019-02-18T11:29:18.187Z,69.09
2019-02-18T11:30:18.127Z,68.90
2019-02-18T11:31:18.067Z,69.09
2019-02-18T11:32:18.003Z,69.09
2019-02-18T11:33:17.942Z,69.27
2019-02-18T11:34:17.882Z,69.18
2019-02-18T11:35:17.825Z,69.09
2019-02-18T11:36:17.759Z,69.27
2019-02-18T11:37:17.699Z,68.80
2019-02-18T11:38:17.637Z,68.71
2019-02-18T11:39:17.575Z,68.80
2019-02-18T11:40:17.513Z,69.09
2019-02-18T11:41:26.819Z,69.46
2019-02-18T11:42:17.393Z,68.90
2019-02-18T11:43:17.331Z,68.90
2019-02-18T11:44:17.269Z,68.90
2019-02-18T11:45:17.207Z,68.80
2019-02-18T11:46:17.147Z,69.09
2019-02-18T11:47:17.086Z,68.71
2019-02-18T11:48:17.026Z,69.09
2019-02-18T11:49:16.963Z,68.71
2019-02-18T11:50:16.903Z,68.71
2019-02-18T11:51:16.848Z,68.71
2019-02-18T11:52:16.784Z,68.71
2019-02-18T11:53:16.718Z,68.71
2019-02-18T11:54:16.657Z,68.61
2019-02-18T11:55:16.597Z,68.80
2019-02-18T11:56:16.536Z,68.80
2019-02-18T11:57:16.477Z,68.71
2019-02-18T11:58:16.414Z,68.71
2019-02-18T11:59:24.115Z,68.80
2019-02-18T12:00:16.296Z,68.90
2019-02-18T12:01:16.229Z,68.90
2019-02-18T12:02:16.171Z,68.80
2019-02-18T12:03:16.109Z,68.80
2019-02-18T12:04:16.046Z,68.99
2019-02-18T12:05:15.985Z,69.09
2019-02-18T12:06:15.924Z,69.27
2019-02-18T12:07:15.863Z,69.37
2019-02-18T12:08:15.806Z,69.09
2019-02-18T12:09:17.775Z,68.90
2019-02-18T12:10:15.679Z,68.90
2019-02-18T12:11:15.620Z,68.80
2019-02-18T12:12:15.561Z,68.90
2019-02-18T12:13:15.507Z,68.90
2019-02-18T12:14:15.435Z,69.09
2019-02-18T12:15:15.376Z,69.09
2019-02-18T12:16:15.314Z,69.09
2019-02-18T12:17:20.580Z,69.46
2019-02-18T12:18:15.191Z,69.46
2019-02-18T12:19:15.132Z,69.46
2019-02-18T12:20:15.069Z,69.46
2019-02-18T12:21:15.011Z,69.66
2019-02-18T12:22:14.950Z,69.85
2019-02-18T12:23:14.887Z,69.85
2019-02-18T12:24:14.826Z,69.09
2019-02-18T12:25:14.764Z,69.09
2019-02-18T12:26:14.703Z,69.18
2019-02-18T12:27:14.642Z,68.99
2019-02-18T12:28:15.555Z,69.09
2019-02-18T12:29:14.520Z,69.27
2019-02-18T12:30:14.527Z,68.99
2019-02-18T12:31:14.399Z,69.09
2019-02-18T12:32:14.338Z,69.37
2019-02-18T12:33:14.586Z,69.60
2019-02-18T12:34:14.216Z,69.66
2019-02-18T12:35:14.155Z,69.60
2019-02-18T12:36:14.093Z,69.69
2019-02-18T12:37:14.036Z,69.69
2019-02-18T12:38:13.972Z,69.50
2019-02-18T12:39:13.924Z,69.69
2019-02-18T12:40:13.849Z,69.69
2019-02-18T12:41:13.799Z,69.31
2019-02-18T12:42:13.729Z,69.69
2019-02-18T12:43:13.668Z,69.41
2019-02-18T12:44:13.607Z,69.41
2019-02-18T12:45:13.545Z,69.41
2019-02-18T12:46:15.769Z,69.41
2019-02-18T12:47:13.424Z,69.41
2019-02-18T12:48:13.361Z,69.37
2019-02-18T12:49:13.301Z,69.41
2019-02-18T12:50:13.241Z,69.60
2019-02-18T12:51:13.181Z,69.60